sensor_id;sensor_type;location;lat;lon;timestamp;temperature;humidity
25951;DHT22;13748;52.240;6.002;2022-12-16T00:01:25;0.50;99.90
25951;DHT22;13748;52.240;6.002;2022-12-16T00:03:54;0.40;99.90
25951;DHT22;13748;52.240;6.002;2022-12-16T00:06:24;0.30;99.90
25951;DHT22;13748;52.240;6.002;2022-12-16T00:08:52;0.30;99.90
25951;DHT22;13748;52.240;6.002;2022-12-16T00:11:20;0.20;99.90
25951;DHT22;13748;52.240;6.002;2022-12-16T00:13:47;0.20;99.90
25951;DHT22;13748;52.240;6.002;2022-12-16T00:16:16;0.20;99.90
25951;DHT22;13748;52.240;6.002;2022-12-16T00:18:44;0.10;99.90
25951;DHT22;13748;52.240;6.002;2022-12-16T00:21:11;0.10;99.90
25951;DHT22;13748;52.240;6.002;2022-12-16T00:23:38;0.10;99.90
25951;DHT22;13748;52.240;6.002;2022-12-16T00:26:07;0.10;99.90
25951;DHT22;13748;52.240;6.002;2022-12-16T00:28:34;0.10;99.90
25951;DHT22;13748;52.240;6.002;2022-12-16T00:31:01;0.10;99.90
25951;DHT22;13748;52.240;6.002;2022-12-16T00:33:28;0.00;99.90
25951;DHT22;13748;52.240;6.002;2022-12-16T00:35:55;0.00;99.90
25951;DHT22;13748;52.240;6.002;2022-12-16T00:38:24;-0.10;99.90
25951;DHT22;13748;52.240;6.002;2022-12-16T00:40:51;-0.10;99.90
25951;DHT22;13748;52.240;6.002;2022-12-16T00:43:18;-0.20;99.90
25951;DHT22;13748;52.240;6.002;2022-12-16T00:45:46;-0.20;99.90
25951;DHT22;13748;52.240;6.002;2022-12-16T00:48:14;-0.20;99.90
25951;DHT22;13748;52.240;6.002;2022-12-16T00:50:45;-0.20;99.90
25951;DHT22;13748;52.240;6.002;2022-12-16T00:53:11;-0.10;99.90
25951;DHT22;13748;52.240;6.002;2022-12-16T00:55:38;-0.10;99.90
25951;DHT22;13748;52.240;6.002;2022-12-16T00:58:05;-0.10;99.90
25951;DHT22;13748;52.240;6.002;2022-12-16T01:00:31;0.00;99.90
25951;DHT22;13748;52.240;6.002;2022-12-16T01:02:58;0.00;99.90
25951;DHT22;13748;52.240;6.002;2022-12-16T01:05:26;0.00;99.90
25951;DHT22;13748;52.240;6.002;2022-12-16T01:07:56;0.00;99.90
25951;DHT22;13748;52.240;6.002;2022-12-16T01:10:24;0.10;99.90
25951;DHT22;13748;52.240;6.002;2022-12-16T01:12:51;0.10;99.90
25951;DHT22;13748;52.240;6.002;2022-12-16T01:15:18;0.20;99.90
25951;DHT22;13748;52.240;6.002;2022-12-16T01:17:45;0.10;99.90
25951;DHT22;13748;52.240;6.002;2022-12-16T01:20:12;0.10;99.90
25951;DHT22;13748;52.240;6.002;2022-12-16T01:22:39;0.20;99.90
25951;DHT22;13748;52.240;6.002;2022-12-16T01:25:07;0.20;99.90
25951;DHT22;13748;52.240;6.002;2022-12-16T01:27:35;0.20;99.90
25951;DHT22;13748;52.240;6.002;2022-12-16T01:30:02;0.20;99.90
25951;DHT22;13748;52.240;6.002;2022-12-16T01:32:28;0.20;99.90
25951;DHT22;13748;52.240;6.002;2022-12-16T01:34:55;0.20;99.90
25951;DHT22;13748;52.240;6.002;2022-12-16T01:37:23;0.20;99.90
25951;DHT22;13748;52.240;6.002;2022-12-16T01:39:50;0.20;99.90
25951;DHT22;13748;52.240;6.002;2022-12-16T01:42:20;0.20;99.90
25951;DHT22;13748;52.240;6.002;2022-12-16T01:44:49;0.30;99.90
25951;DHT22;13748;52.240;6.002;2022-12-16T01:47:30;0.30;99.90
25951;DHT22;13748;52.240;6.002;2022-12-16T01:50:01;0.30;99.90
25951;DHT22;13748;52.240;6.002;2022-12-16T01:52:32;0.30;99.90
25951;DHT22;13748;52.240;6.002;2022-12-16T01:55:04;0.30;99.90
25951;DHT22;13748;52.240;6.002;2022-12-16T01:57:37;0.40;99.90
25951;DHT22;13748;52.240;6.002;2022-12-16T02:00:07;0.40;99.90
25951;DHT22;13748;52.240;6.002;2022-12-16T02:02:34;0.40;99.90
25951;DHT22;13748;52.240;6.002;2022-12-16T02:05:02;0.50;99.90
25951;DHT22;13748;52.240;6.002;2022-12-16T02:15:59;0.50;99.90
25951;DHT22;13748;52.240;6.002;2022-12-16T02:19:01;0.60;99.90
25951;DHT22;13748;52.240;6.002;2022-12-16T02:22:26;0.60;99.90
25951;DHT22;13748;52.240;6.002;2022-12-16T02:36:38;0.70;99.90
25951;DHT22;13748;52.240;6.002;2022-12-16T02:39:00;0.70;99.90
25951;DHT22;13748;52.240;6.002;2022-12-16T02:41:59;0.70;99.90
25951;DHT22;13748;52.240;6.002;2022-12-16T02:44:39;0.60;99.90
25951;DHT22;13748;52.240;6.002;2022-12-16T02:47:07;0.60;99.90
25951;DHT22;13748;52.240;6.002;2022-12-16T02:52:01;0.60;99.90
25951;DHT22;13748;52.240;6.002;2022-12-16T02:54:27;0.60;99.90
25951;DHT22;13748;52.240;6.002;2022-12-16T02:57:01;0.60;99.90
25951;DHT22;13748;52.240;6.002;2022-12-16T02:59:53;0.60;99.90
25951;DHT22;13748;52.240;6.002;2022-12-16T03:05:24;0.60;99.90
25951;DHT22;13748;52.240;6.002;2022-12-16T03:07:53;0.60;99.90
25951;DHT22;13748;52.240;6.002;2022-12-16T03:10:26;0.60;99.90
25951;DHT22;13748;52.240;6.002;2022-12-16T03:12:55;0.60;99.90
25951;DHT22;13748;52.240;6.002;2022-12-16T03:15:25;0.60;99.90
25951;DHT22;13748;52.240;6.002;2022-12-16T03:17:54;0.60;99.90
25951;DHT22;13748;52.240;6.002;2022-12-16T03:20:39;0.70;99.90
25951;DHT22;13748;52.240;6.002;2022-12-16T03:23:12;0.70;99.90
25951;DHT22;13748;52.240;6.002;2022-12-16T03:25:42;0.70;99.90
25951;DHT22;13748;52.240;6.002;2022-12-16T03:29:02;0.70;99.90
25951;DHT22;13748;52.240;6.002;2022-12-16T03:31:14;0.70;99.90
25951;DHT22;13748;52.240;6.002;2022-12-16T03:33:59;0.70;99.90
25951;DHT22;13748;52.240;6.002;2022-12-16T03:36:32;0.80;99.90
25951;DHT22;13748;52.240;6.002;2022-12-16T03:39:03;0.80;99.90
25951;DHT22;13748;52.240;6.002;2022-12-16T03:41:31;0.80;99.90
25951;DHT22;13748;52.240;6.002;2022-12-16T03:43:59;0.80;99.90
25951;DHT22;13748;52.240;6.002;2022-12-16T03:46:26;0.70;99.90
25951;DHT22;13748;52.240;6.002;2022-12-16T03:48:53;0.70;99.90
25951;DHT22;13748;52.240;6.002;2022-12-16T03:51:19;0.70;99.90
25951;DHT22;13748;52.240;6.002;2022-12-16T03:53:46;0.80;99.90
25951;DHT22;13748;52.240;6.002;2022-12-16T03:56:13;0.80;99.90
25951;DHT22;13748;52.240;6.002;2022-12-16T03:58:40;0.80;99.90
25951;DHT22;13748;52.240;6.002;2022-12-16T04:01:08;0.80;99.90
25951;DHT22;13748;52.240;6.002;2022-12-16T04:03:36;0.80;99.90
25951;DHT22;13748;52.240;6.002;2022-12-16T04:06:03;0.80;99.90
25951;DHT22;13748;52.240;6.002;2022-12-16T04:08:30;0.80;99.90
25951;DHT22;13748;52.240;6.002;2022-12-16T04:10:57;0.80;99.90
25951;DHT22;13748;52.240;6.002;2022-12-16T04:13:42;0.80;99.90
25951;DHT22;13748;52.240;6.002;2022-12-16T04:16:28;0.80;99.90
25951;DHT22;13748;52.240;6.002;2022-12-16T04:19:25;0.80;99.90
25951;DHT22;13748;52.240;6.002;2022-12-16T04:22:17;0.80;99.90
25951;DHT22;13748;52.240;6.002;2022-12-16T04:25:30;0.80;99.90
25951;DHT22;13748;52.240;6.002;2022-12-16T04:27:58;0.80;99.90
25951;DHT22;13748;52.240;6.002;2022-12-16T04:30:25;0.80;99.90
25951;DHT22;13748;52.240;6.002;2022-12-16T04:32:57;0.80;99.90
25951;DHT22;13748;52.240;6.002;2022-12-16T04:35:42;0.80;99.90
25951;DHT22;13748;52.240;6.002;2022-12-16T04:38:29;0.80;99.90
25951;DHT22;13748;52.240;6.002;2022-12-16T04:41:14;0.80;99.90
25951;DHT22;13748;52.240;6.002;2022-12-16T04:44:00;0.80;99.90
25951;DHT22;13748;52.240;6.002;2022-12-16T04:46:46;0.90;99.90
25951;DHT22;13748;52.240;6.002;2022-12-16T04:49:31;0.90;99.90
25951;DHT22;13748;52.240;6.002;2022-12-16T04:52:17;0.90;99.90
25951;DHT22;13748;52.240;6.002;2022-12-16T04:55:02;0.90;99.90
25951;DHT22;13748;52.240;6.002;2022-12-16T04:57:52;0.90;99.90
25951;DHT22;13748;52.240;6.002;2022-12-16T05:00:37;1.00;99.90
25951;DHT22;13748;52.240;6.002;2022-12-16T05:03:23;1.00;99.90
25951;DHT22;13748;52.240;6.002;2022-12-16T05:06:09;1.00;99.90
25951;DHT22;13748;52.240;6.002;2022-12-16T05:08:54;1.00;99.90
25951;DHT22;13748;52.240;6.002;2022-12-16T05:11:40;1.00;99.90
25951;DHT22;13748;52.240;6.002;2022-12-16T05:14:25;1.00;99.90
25951;DHT22;13748;52.240;6.002;2022-12-16T05:17:10;1.00;99.90
25951;DHT22;13748;52.240;6.002;2022-12-16T05:20:00;1.00;99.90
25951;DHT22;13748;52.240;6.002;2022-12-16T05:22:46;1.10;99.90
25951;DHT22;13748;52.240;6.002;2022-12-16T05:25:31;1.10;99.90
25951;DHT22;13748;52.240;6.002;2022-12-16T05:28:17;1.10;99.90
25951;DHT22;13748;52.240;6.002;2022-12-16T05:31:02;1.10;99.90
25951;DHT22;13748;52.240;6.002;2022-12-16T05:33:48;1.10;99.90
25951;DHT22;13748;52.240;6.002;2022-12-16T05:36:33;1.10;99.90
25951;DHT22;13748;52.240;6.002;2022-12-16T05:39:19;1.00;99.90
25951;DHT22;13748;52.240;6.002;2022-12-16T05:42:04;1.00;99.90
25951;DHT22;13748;52.240;6.002;2022-12-16T05:44:49;1.00;99.90
25951;DHT22;13748;52.240;6.002;2022-12-16T05:47:55;1.00;99.90
25951;DHT22;13748;52.240;6.002;2022-12-16T05:50:48;0.90;99.90
25951;DHT22;13748;52.240;6.002;2022-12-16T05:53:33;0.80;99.90
25951;DHT22;13748;52.240;6.002;2022-12-16T05:56:18;0.80;99.90
25951;DHT22;13748;52.240;6.002;2022-12-16T05:59:04;0.70;99.90
25951;DHT22;13748;52.240;6.002;2022-12-16T06:01:49;0.70;99.90
25951;DHT22;13748;52.240;6.002;2022-12-16T06:04:35;0.60;99.90
25951;DHT22;13748;52.240;6.002;2022-12-16T06:07:20;0.50;99.90
25951;DHT22;13748;52.240;6.002;2022-12-16T06:10:06;0.40;99.90
25951;DHT22;13748;52.240;6.002;2022-12-16T06:12:51;0.30;99.90
25951;DHT22;13748;52.240;6.002;2022-12-16T06:15:37;0.30;99.90
25951;DHT22;13748;52.240;6.002;2022-12-16T06:18:22;0.10;99.90
25951;DHT22;13748;52.240;6.002;2022-12-16T06:21:07;0.10;99.90
25951;DHT22;13748;52.240;6.002;2022-12-16T06:23:53;0.00;99.90
25951;DHT22;13748;52.240;6.002;2022-12-16T06:26:38;0.00;99.90
25951;DHT22;13748;52.240;6.002;2022-12-16T06:29:24;-0.10;99.90
25951;DHT22;13748;52.240;6.002;2022-12-16T06:32:09;-0.10;99.90
25951;DHT22;13748;52.240;6.002;2022-12-16T06:34:55;-0.10;99.90
25951;DHT22;13748;52.240;6.002;2022-12-16T06:37:40;-0.10;99.90
25951;DHT22;13748;52.240;6.002;2022-12-16T06:40:26;0.00;99.90
25951;DHT22;13748;52.240;6.002;2022-12-16T06:43:11;0.00;99.90
25951;DHT22;13748;52.240;6.002;2022-12-16T06:45:57;0.00;99.90
25951;DHT22;13748;52.240;6.002;2022-12-16T06:48:43;0.00;99.90
25951;DHT22;13748;52.240;6.002;2022-12-16T06:51:28;0.10;99.90
25951;DHT22;13748;52.240;6.002;2022-12-16T06:54:13;0.10;99.90
25951;DHT22;13748;52.240;6.002;2022-12-16T06:56:59;0.20;99.90
25951;DHT22;13748;52.240;6.002;2022-12-16T06:59:44;0.20;99.90
25951;DHT22;13748;52.240;6.002;2022-12-16T07:02:30;0.30;99.90
25951;DHT22;13748;52.240;6.002;2022-12-16T07:05:15;0.30;99.90
25951;DHT22;13748;52.240;6.002;2022-12-16T07:08:01;0.30;99.90
25951;DHT22;13748;52.240;6.002;2022-12-16T07:10:46;0.20;99.90
25951;DHT22;13748;52.240;6.002;2022-12-16T07:13:41;0.30;99.90
25951;DHT22;13748;52.240;6.002;2022-12-16T07:16:27;0.20;99.90
25951;DHT22;13748;52.240;6.002;2022-12-16T07:19:13;0.30;99.90
25951;DHT22;13748;52.240;6.002;2022-12-16T07:21:58;0.30;99.90
25951;DHT22;13748;52.240;6.002;2022-12-16T07:24:43;0.30;99.90
25951;DHT22;13748;52.240;6.002;2022-12-16T07:27:28;0.30;99.90
25951;DHT22;13748;52.240;6.002;2022-12-16T07:30:14;0.30;99.90
25951;DHT22;13748;52.240;6.002;2022-12-16T07:32:59;0.20;99.90
25951;DHT22;13748;52.240;6.002;2022-12-16T07:35:45;0.10;99.90
25951;DHT22;13748;52.240;6.002;2022-12-16T07:38:31;0.10;99.90
25951;DHT22;13748;52.240;6.002;2022-12-16T07:41:16;0.00;99.90
25951;DHT22;13748;52.240;6.002;2022-12-16T07:44:04;-0.10;99.90
25951;DHT22;13748;52.240;6.002;2022-12-16T07:46:50;-0.20;99.90
25951;DHT22;13748;52.240;6.002;2022-12-16T07:49:37;-0.30;99.90
25951;DHT22;13748;52.240;6.002;2022-12-16T07:52:22;-0.30;99.90
25951;DHT22;13748;52.240;6.002;2022-12-16T07:55:08;-0.30;99.90
25951;DHT22;13748;52.240;6.002;2022-12-16T07:57:53;-0.30;99.90
25951;DHT22;13748;52.240;6.002;2022-12-16T08:00:39;-0.30;99.90
25951;DHT22;13748;52.240;6.002;2022-12-16T08:03:26;-0.30;99.90
25951;DHT22;13748;52.240;6.002;2022-12-16T08:06:11;-0.30;99.90
25951;DHT22;13748;52.240;6.002;2022-12-16T08:09:02;-0.30;99.90
25951;DHT22;13748;52.240;6.002;2022-12-16T08:11:48;-0.20;99.90
25951;DHT22;13748;52.240;6.002;2022-12-16T08:14:33;-0.30;99.90
25951;DHT22;13748;52.240;6.002;2022-12-16T08:17:18;-0.20;99.90
25951;DHT22;13748;52.240;6.002;2022-12-16T08:20:04;-0.20;99.90
25951;DHT22;13748;52.240;6.002;2022-12-16T08:22:50;-0.20;99.90
25951;DHT22;13748;52.240;6.002;2022-12-16T08:25:35;-0.20;99.90
25951;DHT22;13748;52.240;6.002;2022-12-16T08:28:21;-0.20;99.90
25951;DHT22;13748;52.240;6.002;2022-12-16T08:31:09;-0.20;99.90
25951;DHT22;13748;52.240;6.002;2022-12-16T08:33:54;-0.10;99.90
25951;DHT22;13748;52.240;6.002;2022-12-16T08:36:40;-0.20;99.90
25951;DHT22;13748;52.240;6.002;2022-12-16T08:39:25;-0.10;99.90
25951;DHT22;13748;52.240;6.002;2022-12-16T08:42:16;-0.10;99.90
25951;DHT22;13748;52.240;6.002;2022-12-16T08:45:02;0.00;99.90
25951;DHT22;13748;52.240;6.002;2022-12-16T08:47:48;0.00;99.90
25951;DHT22;13748;52.240;6.002;2022-12-16T08:50:33;0.10;99.90
25951;DHT22;13748;52.240;6.002;2022-12-16T08:53:18;0.10;99.90
25951;DHT22;13748;52.240;6.002;2022-12-16T08:56:04;0.20;99.90
25951;DHT22;13748;52.240;6.002;2022-12-16T08:58:50;0.20;99.90
25951;DHT22;13748;52.240;6.002;2022-12-16T09:01:35;0.30;99.90
25951;DHT22;13748;52.240;6.002;2022-12-16T09:04:21;0.30;99.90
25951;DHT22;13748;52.240;6.002;2022-12-16T09:07:06;0.40;99.90
25951;DHT22;13748;52.240;6.002;2022-12-16T09:09:51;0.50;99.90
25951;DHT22;13748;52.240;6.002;2022-12-16T09:12:37;0.60;99.90
25951;DHT22;13748;52.240;6.002;2022-12-16T09:15:22;0.70;99.90
25951;DHT22;13748;52.240;6.002;2022-12-16T09:18:08;0.80;99.90
25951;DHT22;13748;52.240;6.002;2022-12-16T09:20:53;0.80;99.90
25951;DHT22;13748;52.240;6.002;2022-12-16T09:23:39;0.90;99.90
25951;DHT22;13748;52.240;6.002;2022-12-16T09:26:28;1.00;99.90
25951;DHT22;13748;52.240;6.002;2022-12-16T09:29:14;1.10;99.90
25951;DHT22;13748;52.240;6.002;2022-12-16T09:31:59;1.20;99.90
25951;DHT22;13748;52.240;6.002;2022-12-16T09:34:44;1.20;99.90
25951;DHT22;13748;52.240;6.002;2022-12-16T09:37:44;1.30;99.90
25951;DHT22;13748;52.240;6.002;2022-12-16T09:40:30;1.40;99.90
25951;DHT22;13748;52.240;6.002;2022-12-16T09:43:41;1.50;99.90
25951;DHT22;13748;52.240;6.002;2022-12-16T09:47:13;1.50;99.90
25951;DHT22;13748;52.240;6.002;2022-12-16T09:50:02;1.60;99.90
25951;DHT22;13748;52.240;6.002;2022-12-16T09:52:59;1.70;99.90
25951;DHT22;13748;52.240;6.002;2022-12-16T09:55:47;1.80;99.90
25951;DHT22;13748;52.240;6.002;2022-12-16T09:58:38;1.90;99.90
25951;DHT22;13748;52.240;6.002;2022-12-16T10:01:25;1.90;99.90
25951;DHT22;13748;52.240;6.002;2022-12-16T10:04:11;2.00;99.90
25951;DHT22;13748;52.240;6.002;2022-12-16T10:06:59;2.10;99.90
25951;DHT22;13748;52.240;6.002;2022-12-16T10:10:03;2.10;99.90
25951;DHT22;13748;52.240;6.002;2022-12-16T10:13:24;2.20;99.90
25951;DHT22;13748;52.240;6.002;2022-12-16T10:16:35;2.20;99.90
25951;DHT22;13748;52.240;6.002;2022-12-16T10:19:37;2.30;99.90
25951;DHT22;13748;52.240;6.002;2022-12-16T10:25:51;2.30;99.90
25951;DHT22;13748;52.240;6.002;2022-12-16T10:28:47;2.40;99.90
25951;DHT22;13748;52.240;6.002;2022-12-16T10:31:35;2.40;99.90
25951;DHT22;13748;52.240;6.002;2022-12-16T10:34:28;2.40;99.90
25951;DHT22;13748;52.240;6.002;2022-12-16T10:37:32;2.40;99.90
25951;DHT22;13748;52.240;6.002;2022-12-16T10:40:22;2.40;99.90
25951;DHT22;13748;52.240;6.002;2022-12-16T10:43:18;2.40;99.90
25951;DHT22;13748;52.240;6.002;2022-12-16T10:46:11;2.40;99.90
25951;DHT22;13748;52.240;6.002;2022-12-16T10:48:58;2.40;99.90
25951;DHT22;13748;52.240;6.002;2022-12-16T10:51:44;2.30;99.90
25951;DHT22;13748;52.240;6.002;2022-12-16T10:54:41;2.30;99.90
25951;DHT22;13748;52.240;6.002;2022-12-16T10:57:33;2.30;99.90
25951;DHT22;13748;52.240;6.002;2022-12-16T11:00:45;2.30;99.90
25951;DHT22;13748;52.240;6.002;2022-12-16T11:03:32;2.30;99.90
25951;DHT22;13748;52.240;6.002;2022-12-16T11:06:34;2.30;99.90
25951;DHT22;13748;52.240;6.002;2022-12-16T11:09:29;2.30;99.90
25951;DHT22;13748;52.240;6.002;2022-12-16T11:12:21;2.40;99.90
25951;DHT22;13748;52.240;6.002;2022-12-16T11:15:28;2.40;99.90
25951;DHT22;13748;52.240;6.002;2022-12-16T11:18:19;2.40;99.90
25951;DHT22;13748;52.240;6.002;2022-12-16T11:26:53;2.30;99.90
25951;DHT22;13748;52.240;6.002;2022-12-16T11:29:49;2.30;99.90
25951;DHT22;13748;52.240;6.002;2022-12-16T11:32:36;2.30;99.90
25951;DHT22;13748;52.240;6.002;2022-12-16T11:35:26;2.30;99.90
25951;DHT22;13748;52.240;6.002;2022-12-16T11:38:21;2.30;99.90
25951;DHT22;13748;52.240;6.002;2022-12-16T11:41:16;2.30;99.90
25951;DHT22;13748;52.240;6.002;2022-12-16T11:44:04;2.30;99.90
25951;DHT22;13748;52.240;6.002;2022-12-16T11:46:50;2.30;99.90
25951;DHT22;13748;52.240;6.002;2022-12-16T11:49:35;2.30;99.90
25951;DHT22;13748;52.240;6.002;2022-12-16T11:52:21;2.20;99.90
25951;DHT22;13748;52.240;6.002;2022-12-16T11:55:20;2.20;99.90
25951;DHT22;13748;52.240;6.002;2022-12-16T11:58:30;2.20;99.90
25951;DHT22;13748;52.240;6.002;2022-12-16T12:01:29;2.20;99.90
25951;DHT22;13748;52.240;6.002;2022-12-16T12:04:15;2.10;99.90
25951;DHT22;13748;52.240;6.002;2022-12-16T12:07:12;2.10;99.90
25951;DHT22;13748;52.240;6.002;2022-12-16T12:13:33;2.10;99.90
25951;DHT22;13748;52.240;6.002;2022-12-16T12:16:48;2.10;99.90
25951;DHT22;13748;52.240;6.002;2022-12-16T12:19:50;2.10;99.90
25951;DHT22;13748;52.240;6.002;2022-12-16T12:22:38;2.00;99.90
25951;DHT22;13748;52.240;6.002;2022-12-16T12:25:27;2.00;99.90
25951;DHT22;13748;52.240;6.002;2022-12-16T12:31:42;1.90;99.90
25951;DHT22;13748;52.240;6.002;2022-12-16T12:34:38;1.90;99.90
25951;DHT22;13748;52.240;6.002;2022-12-16T12:37:30;1.90;99.90
25951;DHT22;13748;52.240;6.002;2022-12-16T12:40:35;1.90;99.90
25951;DHT22;13748;52.240;6.002;2022-12-16T12:46:35;1.90;99.90
25951;DHT22;13748;52.240;6.002;2022-12-16T12:49:42;1.90;99.90
25951;DHT22;13748;52.240;6.002;2022-12-16T12:52:50;1.90;99.90
25951;DHT22;13748;52.240;6.002;2022-12-16T12:56:10;1.90;99.90
25951;DHT22;13748;52.240;6.002;2022-12-16T12:59:03;1.90;99.90
25951;DHT22;13748;52.240;6.002;2022-12-16T13:01:49;1.90;99.90
25951;DHT22;13748;52.240;6.002;2022-12-16T13:04:37;1.90;99.90
25951;DHT22;13748;52.240;6.002;2022-12-16T13:07:22;1.90;99.90
25951;DHT22;13748;52.240;6.002;2022-12-16T13:10:11;1.90;99.90
25951;DHT22;13748;52.240;6.002;2022-12-16T13:16:01;2.00;99.90
25951;DHT22;13748;52.240;6.002;2022-12-16T13:18:46;2.00;99.90
25951;DHT22;13748;52.240;6.002;2022-12-16T13:27:15;1.90;99.90
25951;DHT22;13748;52.240;6.002;2022-12-16T13:30:22;1.90;99.90
25951;DHT22;13748;52.240;6.002;2022-12-16T13:33:30;1.90;99.90
25951;DHT22;13748;52.240;6.002;2022-12-16T13:36:17;1.90;99.90
25951;DHT22;13748;52.240;6.002;2022-12-16T13:39:22;1.90;99.90
25951;DHT22;13748;52.240;6.002;2022-12-16T13:43:00;1.90;99.90
25951;DHT22;13748;52.240;6.002;2022-12-16T13:46:29;1.90;99.90
25951;DHT22;13748;52.240;6.002;2022-12-16T13:48:48;1.90;99.90
25951;DHT22;13748;52.240;6.002;2022-12-16T13:54:51;1.80;99.90
25951;DHT22;13748;52.240;6.002;2022-12-16T13:57:41;1.80;99.90
25951;DHT22;13748;52.240;6.002;2022-12-16T14:00:28;1.80;99.90
25951;DHT22;13748;52.240;6.002;2022-12-16T14:03:17;1.80;99.90
25951;DHT22;13748;52.240;6.002;2022-12-16T14:06:10;1.80;99.90
25951;DHT22;13748;52.240;6.002;2022-12-16T14:08:58;1.90;99.90
25951;DHT22;13748;52.240;6.002;2022-12-16T14:11:55;1.90;99.90
25951;DHT22;13748;52.240;6.002;2022-12-16T14:14:51;1.90;99.90
25951;DHT22;13748;52.240;6.002;2022-12-16T14:17:58;1.90;99.90
25951;DHT22;13748;52.240;6.002;2022-12-16T14:20:53;1.90;99.90
25951;DHT22;13748;52.240;6.002;2022-12-16T14:23:48;1.90;99.90
25951;DHT22;13748;52.240;6.002;2022-12-16T14:26:36;1.90;99.90
25951;DHT22;13748;52.240;6.002;2022-12-16T14:29:27;1.90;99.90
25951;DHT22;13748;52.240;6.002;2022-12-16T14:32:26;1.90;99.90
25951;DHT22;13748;52.240;6.002;2022-12-16T14:35:23;1.90;99.90
25951;DHT22;13748;52.240;6.002;2022-12-16T14:38:24;1.80;99.90
25951;DHT22;13748;52.240;6.002;2022-12-16T14:41:22;1.80;99.90
25951;DHT22;13748;52.240;6.002;2022-12-16T14:44:22;1.80;99.90
25951;DHT22;13748;52.240;6.002;2022-12-16T14:47:16;1.70;99.90
25951;DHT22;13748;52.240;6.002;2022-12-16T14:50:02;1.70;99.90
25951;DHT22;13748;52.240;6.002;2022-12-16T14:53:16;1.80;99.90
25951;DHT22;13748;52.240;6.002;2022-12-16T14:56:14;1.70;99.90
25951;DHT22;13748;52.240;6.002;2022-12-16T15:01:54;1.80;99.90
25951;DHT22;13748;52.240;6.002;2022-12-16T15:04:42;1.80;99.90
25951;DHT22;13748;52.240;6.002;2022-12-16T15:07:33;1.80;99.90
25951;DHT22;13748;52.240;6.002;2022-12-16T15:10:23;1.80;99.90
25951;DHT22;13748;52.240;6.002;2022-12-16T15:13:15;1.70;99.90
25951;DHT22;13748;52.240;6.002;2022-12-16T15:16:03;1.70;99.90
25951;DHT22;13748;52.240;6.002;2022-12-16T15:18:57;1.70;99.90
25951;DHT22;13748;52.240;6.002;2022-12-16T15:21:43;1.70;99.90
25951;DHT22;13748;52.240;6.002;2022-12-16T15:24:34;1.80;99.90
25951;DHT22;13748;52.240;6.002;2022-12-16T15:30:34;1.80;99.90
25951;DHT22;13748;52.240;6.002;2022-12-16T15:33:22;1.80;99.90
25951;DHT22;13748;52.240;6.002;2022-12-16T15:39:19;1.80;99.90
25951;DHT22;13748;52.240;6.002;2022-12-16T15:42:05;1.80;99.90
25951;DHT22;13748;52.240;6.002;2022-12-16T15:44:51;1.80;99.90
25951;DHT22;13748;52.240;6.002;2022-12-16T15:47:37;1.80;99.90
25951;DHT22;13748;52.240;6.002;2022-12-16T15:50:25;1.80;99.90
25951;DHT22;13748;52.240;6.002;2022-12-16T15:53:30;1.80;99.90
25951;DHT22;13748;52.240;6.002;2022-12-16T15:56:32;1.80;99.90
25951;DHT22;13748;52.240;6.002;2022-12-16T15:59:27;1.80;99.90
25951;DHT22;13748;52.240;6.002;2022-12-16T16:02:24;1.80;99.90
25951;DHT22;13748;52.240;6.002;2022-12-16T16:05:29;1.80;99.90
25951;DHT22;13748;52.240;6.002;2022-12-16T16:08:15;1.80;99.90
25951;DHT22;13748;52.240;6.002;2022-12-16T16:11:00;1.80;99.90
25951;DHT22;13748;52.240;6.002;2022-12-16T16:13:49;1.80;99.90
25951;DHT22;13748;52.240;6.002;2022-12-16T16:16:49;1.80;99.90
25951;DHT22;13748;52.240;6.002;2022-12-16T16:19:35;2.20;99.90
25951;DHT22;13748;52.240;6.002;2022-12-16T16:22:28;2.10;99.90
25951;DHT22;13748;52.240;6.002;2022-12-16T16:25:13;2.00;99.90
25951;DHT22;13748;52.240;6.002;2022-12-16T16:27:59;2.00;99.90
25951;DHT22;13748;52.240;6.002;2022-12-16T16:30:52;2.00;99.90
25951;DHT22;13748;52.240;6.002;2022-12-16T16:33:37;2.00;99.90
25951;DHT22;13748;52.240;6.002;2022-12-16T16:36:23;2.00;99.90
25951;DHT22;13748;52.240;6.002;2022-12-16T16:39:08;2.00;99.90
25951;DHT22;13748;52.240;6.002;2022-12-16T16:41:54;2.00;99.90
25951;DHT22;13748;52.240;6.002;2022-12-16T16:44:39;1.90;99.90
25951;DHT22;13748;52.240;6.002;2022-12-16T16:47:25;2.00;99.90
25951;DHT22;13748;52.240;6.002;2022-12-16T16:50:14;2.00;99.90
25951;DHT22;13748;52.240;6.002;2022-12-16T16:52:59;1.90;99.90
25951;DHT22;13748;52.240;6.002;2022-12-16T16:55:44;1.90;99.90
25951;DHT22;13748;52.240;6.002;2022-12-16T16:58:31;1.90;99.90
25951;DHT22;13748;52.240;6.002;2022-12-16T17:01:18;1.90;99.90
25951;DHT22;13748;52.240;6.002;2022-12-16T17:04:04;1.90;99.90
25951;DHT22;13748;52.240;6.002;2022-12-16T17:06:49;1.90;99.90
25951;DHT22;13748;52.240;6.002;2022-12-16T17:09:34;1.90;99.90
25951;DHT22;13748;52.240;6.002;2022-12-16T17:12:24;1.90;99.90
25951;DHT22;13748;52.240;6.002;2022-12-16T17:15:21;1.90;99.90
25951;DHT22;13748;52.240;6.002;2022-12-16T17:18:07;1.90;99.90
25951;DHT22;13748;52.240;6.002;2022-12-16T17:20:53;1.90;99.90
25951;DHT22;13748;52.240;6.002;2022-12-16T17:23:39;1.90;99.90
25951;DHT22;13748;52.240;6.002;2022-12-16T17:26:25;1.90;99.90
25951;DHT22;13748;52.240;6.002;2022-12-16T17:29:21;1.90;99.90
25951;DHT22;13748;52.240;6.002;2022-12-16T17:32:08;1.90;99.90
25951;DHT22;13748;52.240;6.002;2022-12-16T17:34:54;1.90;99.90
25951;DHT22;13748;52.240;6.002;2022-12-16T17:37:39;1.90;99.90
25951;DHT22;13748;52.240;6.002;2022-12-16T17:40:25;1.90;99.90
25951;DHT22;13748;52.240;6.002;2022-12-16T17:43:10;1.90;99.90
25951;DHT22;13748;52.240;6.002;2022-12-16T17:46:04;1.90;99.90
25951;DHT22;13748;52.240;6.002;2022-12-16T17:48:51;1.90;99.90
25951;DHT22;13748;52.240;6.002;2022-12-16T17:51:36;1.90;99.90
25951;DHT22;13748;52.240;6.002;2022-12-16T17:54:21;1.80;99.90
25951;DHT22;13748;52.240;6.002;2022-12-16T17:57:07;1.80;99.90
25951;DHT22;13748;52.240;6.002;2022-12-16T17:59:52;1.80;99.90
25951;DHT22;13748;52.240;6.002;2022-12-16T18:02:48;1.80;99.90
25951;DHT22;13748;52.240;6.002;2022-12-16T18:05:34;1.80;99.90
25951;DHT22;13748;52.240;6.002;2022-12-16T18:08:20;1.80;99.90
25951;DHT22;13748;52.240;6.002;2022-12-16T18:11:06;1.90;99.90
25951;DHT22;13748;52.240;6.002;2022-12-16T18:13:51;1.80;99.90
25951;DHT22;13748;52.240;6.002;2022-12-16T18:16:37;1.80;99.90
25951;DHT22;13748;52.240;6.002;2022-12-16T18:19:22;1.80;99.90
25951;DHT22;13748;52.240;6.002;2022-12-16T18:22:08;1.80;99.90
25951;DHT22;13748;52.240;6.002;2022-12-16T18:24:53;1.80;99.90
25951;DHT22;13748;52.240;6.002;2022-12-16T18:27:39;1.70;99.90
25951;DHT22;13748;52.240;6.002;2022-12-16T18:30:24;1.70;99.90
25951;DHT22;13748;52.240;6.002;2022-12-16T18:33:09;1.70;99.90
25951;DHT22;13748;52.240;6.002;2022-12-16T18:35:55;1.70;99.90
25951;DHT22;13748;52.240;6.002;2022-12-16T18:38:40;1.70;99.90
25951;DHT22;13748;52.240;6.002;2022-12-16T18:41:26;1.60;99.90
25951;DHT22;13748;52.240;6.002;2022-12-16T18:44:12;1.60;99.90
25951;DHT22;13748;52.240;6.002;2022-12-16T18:46:58;1.60;99.90